sensor_id;sensor_type;location;lat;lon;timestamp;temperature;humidity
13433;DHT22;6789;47.678;9.158;2024-03-06T00:04:30;7.40;99.90
13433;DHT22;6789;47.678;9.158;2024-03-06T00:09:22;7.40;99.90
13433;DHT22;6789;47.678;9.158;2024-03-06T00:14:13;7.40;99.90
13433;DHT22;6789;47.678;9.158;2024-03-06T00:19:05;7.40;99.90
13433;DHT22;6789;47.678;9.158;2024-03-06T00:23:57;7.40;99.90
13433;DHT22;6789;47.678;9.158;2024-03-06T00:28:49;7.30;99.90
13433;DHT22;6789;47.678;9.158;2024-03-06T00:33:41;7.20;99.90
13433;DHT22;6789;47.678;9.158;2024-03-06T00:38:33;7.20;99.90
13433;DHT22;6789;47.678;9.158;2024-03-06T00:43:25;7.20;99.90
13433;DHT22;6789;47.678;9.158;2024-03-06T00:48:17;7.20;99.90
13433;DHT22;6789;47.678;9.158;2024-03-06T00:53:11;7.20;99.90
13433;DHT22;6789;47.678;9.158;2024-03-06T00:58:03;7.10;99.90
13433;DHT22;6789;47.678;9.158;2024-03-06T01:02:55;7.10;99.90
13433;DHT22;6789;47.678;9.158;2024-03-06T01:07:47;7.10;99.90
13433;DHT22;6789;47.678;9.158;2024-03-06T01:12:39;7.10;99.90
13433;DHT22;6789;47.678;9.158;2024-03-06T01:17:30;7.00;99.90
13433;DHT22;6789;47.678;9.158;2024-03-06T01:22:22;7.00;99.90
13433;DHT22;6789;47.678;9.158;2024-03-06T01:27:16;6.90;99.90
13433;DHT22;6789;47.678;9.158;2024-03-06T01:32:08;7.00;99.90
13433;DHT22;6789;47.678;9.158;2024-03-06T01:37:01;7.00;99.90
13433;DHT22;6789;47.678;9.158;2024-03-06T01:41:53;6.90;99.90
13433;DHT22;6789;47.678;9.158;2024-03-06T01:46:45;6.90;99.90
13433;DHT22;6789;47.678;9.158;2024-03-06T01:51:38;6.90;99.90
13433;DHT22;6789;47.678;9.158;2024-03-06T01:56:31;6.90;99.90
13433;DHT22;6789;47.678;9.158;2024-03-06T02:01:24;6.80;99.90
13433;DHT22;6789;47.678;9.158;2024-03-06T02:06:17;6.90;99.90
13433;DHT22;6789;47.678;9.158;2024-03-06T02:11:12;6.90;99.90
13433;DHT22;6789;47.678;9.158;2024-03-06T02:16:05;6.80;99.90
13433;DHT22;6789;47.678;9.158;2024-03-06T02:20:57;6.90;99.90
13433;DHT22;6789;47.678;9.158;2024-03-06T02:25:49;6.80;99.90
13433;DHT22;6789;47.678;9.158;2024-03-06T02:30:41;6.70;99.90
13433;DHT22;6789;47.678;9.158;2024-03-06T02:35:33;6.80;99.90
13433;DHT22;6789;47.678;9.158;2024-03-06T02:40:25;6.60;99.90
13433;DHT22;6789;47.678;9.158;2024-03-06T02:45:17;6.60;99.90
13433;DHT22;6789;47.678;9.158;2024-03-06T02:50:09;6.40;99.90
13433;DHT22;6789;47.678;9.158;2024-03-06T02:55:01;6.40;99.90
13433;DHT22;6789;47.678;9.158;2024-03-06T02:59:54;6.50;99.90
13433;DHT22;6789;47.678;9.158;2024-03-06T03:04:46;6.40;99.90
13433;DHT22;6789;47.678;9.158;2024-03-06T03:09:38;6.50;99.90
13433;DHT22;6789;47.678;9.158;2024-03-06T03:14:30;6.50;99.90
13433;DHT22;6789;47.678;9.158;2024-03-06T03:19:22;6.50;99.90
13433;DHT22;6789;47.678;9.158;2024-03-06T03:24:14;6.40;99.90
13433;DHT22;6789;47.678;9.158;2024-03-06T03:29:05;6.40;99.90
13433;DHT22;6789;47.678;9.158;2024-03-06T03:33:57;6.40;99.90
13433;DHT22;6789;47.678;9.158;2024-03-06T03:38:49;6.40;99.90
13433;DHT22;6789;47.678;9.158;2024-03-06T03:43:41;6.40;99.90
13433;DHT22;6789;47.678;9.158;2024-03-06T03:48:33;6.30;99.90
13433;DHT22;6789;47.678;9.158;2024-03-06T03:53:28;6.30;99.90
13433;DHT22;6789;47.678;9.158;2024-03-06T03:58:19;6.20;99.90
13433;DHT22;6789;47.678;9.158;2024-03-06T04:03:11;6.30;99.90
13433;DHT22;6789;47.678;9.158;2024-03-06T04:08:03;6.20;99.90
13433;DHT22;6789;47.678;9.158;2024-03-06T04:12:58;6.10;99.90
13433;DHT22;6789;47.678;9.158;2024-03-06T04:17:51;6.10;99.90
13433;DHT22;6789;47.678;9.158;2024-03-06T04:22:44;6.10;99.90
13433;DHT22;6789;47.678;9.158;2024-03-06T04:27:37;6.10;99.90
13433;DHT22;6789;47.678;9.158;2024-03-06T04:32:29;6.20;99.90
13433;DHT22;6789;47.678;9.158;2024-03-06T04:37:21;6.30;99.90
13433;DHT22;6789;47.678;9.158;2024-03-06T04:42:13;6.30;99.90
13433;DHT22;6789;47.678;9.158;2024-03-06T04:47:05;6.40;99.90
13433;DHT22;6789;47.678;9.158;2024-03-06T04:51:57;6.30;99.90
13433;DHT22;6789;47.678;9.158;2024-03-06T04:56:48;6.30;99.90
13433;DHT22;6789;47.678;9.158;2024-03-06T05:01:40;6.20;99.90
13433;DHT22;6789;47.678;9.158;2024-03-06T05:06:32;6.10;99.90
13433;DHT22;6789;47.678;9.158;2024-03-06T05:11:41;6.00;99.90
13433;DHT22;6789;47.678;9.158;2024-03-06T05:16:50;5.90;99.90
13433;DHT22;6789;47.678;9.158;2024-03-06T05:22:00;5.90;99.90
13433;DHT22;6789;47.678;9.158;2024-03-06T05:27:10;5.90;99.90
13433;DHT22;6789;47.678;9.158;2024-03-06T05:32:26;5.90;99.90
13433;DHT22;6789;47.678;9.158;2024-03-06T05:37:36;5.90;99.90
13433;DHT22;6789;47.678;9.158;2024-03-06T05:42:45;5.90;99.90
13433;DHT22;6789;47.678;9.158;2024-03-06T05:47:55;5.90;99.90
13433;DHT22;6789;47.678;9.158;2024-03-06T05:53:04;5.90;99.90
13433;DHT22;6789;47.678;9.158;2024-03-06T05:58:14;5.90;99.90
13433;DHT22;6789;47.678;9.158;2024-03-06T06:03:09;5.90;99.90
13433;DHT22;6789;47.678;9.158;2024-03-06T06:08:03;5.90;99.90
13433;DHT22;6789;47.678;9.158;2024-03-06T06:12:56;5.90;99.90
13433;DHT22;6789;47.678;9.158;2024-03-06T06:17:48;5.90;99.90
13433;DHT22;6789;47.678;9.158;2024-03-06T06:22:41;5.90;99.90
13433;DHT22;6789;47.678;9.158;2024-03-06T06:27:33;5.90;99.90
13433;DHT22;6789;47.678;9.158;2024-03-06T06:32:25;5.70;99.90
13433;DHT22;6789;47.678;9.158;2024-03-06T06:37:17;5.50;99.90
13433;DHT22;6789;47.678;9.158;2024-03-06T06:42:11;5.50;99.90
13433;DHT22;6789;47.678;9.158;2024-03-06T06:47:02;5.70;99.90
13433;DHT22;6789;47.678;9.158;2024-03-06T06:51:54;5.80;99.90
13433;DHT22;6789;47.678;9.158;2024-03-06T06:56:46;5.90;99.90
13433;DHT22;6789;47.678;9.158;2024-03-06T07:01:38;6.00;99.90
13433;DHT22;6789;47.678;9.158;2024-03-06T07:06:30;6.00;99.90
13433;DHT22;6789;47.678;9.158;2024-03-06T07:11:22;6.00;99.90
13433;DHT22;6789;47.678;9.158;2024-03-06T07:16:14;6.00;99.90
13433;DHT22;6789;47.678;9.158;2024-03-06T07:21:06;6.00;99.90
13433;DHT22;6789;47.678;9.158;2024-03-06T07:25:59;6.00;99.90
13433;DHT22;6789;47.678;9.158;2024-03-06T07:30:52;6.10;99.90
13433;DHT22;6789;47.678;9.158;2024-03-06T07:35:44;6.10;99.90
13433;DHT22;6789;47.678;9.158;2024-03-06T07:40:36;6.20;99.90
13433;DHT22;6789;47.678;9.158;2024-03-06T07:45:27;6.40;99.90
13433;DHT22;6789;47.678;9.158;2024-03-06T07:50:19;6.50;99.90
13433;DHT22;6789;47.678;9.158;2024-03-06T07:55:12;6.60;99.90
13433;DHT22;6789;47.678;9.158;2024-03-06T08:00:05;6.60;99.90
13433;DHT22;6789;47.678;9.158;2024-03-06T08:05:06;6.70;99.90
13433;DHT22;6789;47.678;9.158;2024-03-06T08:10:01;6.70;99.90
13433;DHT22;6789;47.678;9.158;2024-03-06T08:14:53;6.80;99.90
13433;DHT22;6789;47.678;9.158;2024-03-06T08:19:45;6.70;99.90
13433;DHT22;6789;47.678;9.158;2024-03-06T08:24:37;6.70;99.90
13433;DHT22;6789;47.678;9.158;2024-03-06T08:29:29;6.60;99.90
13433;DHT22;6789;47.678;9.158;2024-03-06T08:34:21;6.50;99.90
13433;DHT22;6789;47.678;9.158;2024-03-06T08:39:14;6.50;99.90
13433;DHT22;6789;47.678;9.158;2024-03-06T08:44:06;6.70;99.90
13433;DHT22;6789;47.678;9.158;2024-03-06T08:48:58;6.70;99.90
13433;DHT22;6789;47.678;9.158;2024-03-06T08:53:54;6.80;99.90
13433;DHT22;6789;47.678;9.158;2024-03-06T08:58:46;6.80;99.90
13433;DHT22;6789;47.678;9.158;2024-03-06T09:03:37;6.80;99.90
13433;DHT22;6789;47.678;9.158;2024-03-06T09:08:29;6.90;99.90
13433;DHT22;6789;47.678;9.158;2024-03-06T09:13:21;7.10;99.90
13433;DHT22;6789;47.678;9.158;2024-03-06T09:18:13;7.30;99.90
13433;DHT22;6789;47.678;9.158;2024-03-06T09:23:05;7.40;99.90
13433;DHT22;6789;47.678;9.158;2024-03-06T09:27:56;7.30;99.90
13433;DHT22;6789;47.678;9.158;2024-03-06T09:32:48;7.30;99.90
13433;DHT22;6789;47.678;9.158;2024-03-06T09:37:40;7.20;99.90
13433;DHT22;6789;47.678;9.158;2024-03-06T09:42:34;7.00;99.90
13433;DHT22;6789;47.678;9.158;2024-03-06T09:47:28;7.00;99.90
13433;DHT22;6789;47.678;9.158;2024-03-06T09:52:24;7.00;99.90
13433;DHT22;6789;47.678;9.158;2024-03-06T09:57:17;7.00;99.90
13433;DHT22;6789;47.678;9.158;2024-03-06T10:02:36;7.10;99.90
13433;DHT22;6789;47.678;9.158;2024-03-06T10:07:30;7.30;99.90
13433;DHT22;6789;47.678;9.158;2024-03-06T10:12:21;7.40;99.90
13433;DHT22;6789;47.678;9.158;2024-03-06T10:17:19;7.40;99.90
13433;DHT22;6789;47.678;9.158;2024-03-06T10:22:15;7.40;99.90
13433;DHT22;6789;47.678;9.158;2024-03-06T10:27:06;7.50;99.90
13433;DHT22;6789;47.678;9.158;2024-03-06T10:31:58;7.50;99.90
13433;DHT22;6789;47.678;9.158;2024-03-06T10:36:55;7.60;99.90
13433;DHT22;6789;47.678;9.158;2024-03-06T10:41:57;7.70;99.90
13433;DHT22;6789;47.678;9.158;2024-03-06T10:47:03;7.70;99.90
13433;DHT22;6789;47.678;9.158;2024-03-06T10:52:01;7.70;99.90
13433;DHT22;6789;47.678;9.158;2024-03-06T10:56:57;7.60;99.90
13433;DHT22;6789;47.678;9.158;2024-03-06T11:01:50;7.60;99.90
13433;DHT22;6789;47.678;9.158;2024-03-06T11:06:43;7.70;99.90
13433;DHT22;6789;47.678;9.158;2024-03-06T11:11:48;7.60;99.90
13433;DHT22;6789;47.678;9.158;2024-03-06T11:17:09;7.40;99.90
13433;DHT22;6789;47.678;9.158;2024-03-06T11:22:02;7.50;99.90
13433;DHT22;6789;47.678;9.158;2024-03-06T11:27:02;7.50;99.90
13433;DHT22;6789;47.678;9.158;2024-03-06T11:32:12;7.50;99.90
13433;DHT22;6789;47.678;9.158;2024-03-06T11:37:05;7.40;99.90
13433;DHT22;6789;47.678;9.158;2024-03-06T11:42:33;7.30;99.90
13433;DHT22;6789;47.678;9.158;2024-03-06T11:47:28;7.60;99.90
13433;DHT22;6789;47.678;9.158;2024-03-06T11:52:20;7.70;99.90
13433;DHT22;6789;47.678;9.158;2024-03-06T11:57:12;7.70;99.90
13433;DHT22;6789;47.678;9.158;2024-03-06T12:02:07;7.70;99.90
13433;DHT22;6789;47.678;9.158;2024-03-06T12:07:02;7.60;99.90
13433;DHT22;6789;47.678;9.158;2024-03-06T12:11:57;7.60;99.90
13433;DHT22;6789;47.678;9.158;2024-03-06T12:16:56;7.60;99.90
13433;DHT22;6789;47.678;9.158;2024-03-06T12:21:48;7.60;99.90
13433;DHT22;6789;47.678;9.158;2024-03-06T12:26:40;7.60;99.90
13433;DHT22;6789;47.678;9.158;2024-03-06T12:31:34;7.50;99.90
13433;DHT22;6789;47.678;9.158;2024-03-06T12:36:27;7.60;99.90
13433;DHT22;6789;47.678;9.158;2024-03-06T12:41:18;7.50;99.90
13433;DHT22;6789;47.678;9.158;2024-03-06T12:46:13;7.40;99.90
13433;DHT22;6789;47.678;9.158;2024-03-06T12:51:11;7.50;99.90
13433;DHT22;6789;47.678;9.158;2024-03-06T12:56:03;7.30;99.90
13433;DHT22;6789;47.678;9.158;2024-03-06T13:00:59;7.40;99.90
13433;DHT22;6789;47.678;9.158;2024-03-06T13:05:51;7.40;99.90
13433;DHT22;6789;47.678;9.158;2024-03-06T13:10:45;7.50;99.90
13433;DHT22;6789;47.678;9.158;2024-03-06T13:15:37;7.40;99.90
13433;DHT22;6789;47.678;9.158;2024-03-06T13:20:30;7.50;99.90
13433;DHT22;6789;47.678;9.158;2024-03-06T13:25:23;7.30;99.90
13433;DHT22;6789;47.678;9.158;2024-03-06T13:30:15;7.30;99.90
13433;DHT22;6789;47.678;9.158;2024-03-06T13:35:07;7.30;99.90
13433;DHT22;6789;47.678;9.158;2024-03-06T13:40:05;7.10;99.90
13433;DHT22;6789;47.678;9.158;2024-03-06T13:44:58;7.10;99.90
13433;DHT22;6789;47.678;9.158;2024-03-06T13:49:50;7.00;99.90
13433;DHT22;6789;47.678;9.158;2024-03-06T13:54:42;7.10;99.90
13433;DHT22;6789;47.678;9.158;2024-03-06T13:59:35;7.00;99.90
13433;DHT22;6789;47.678;9.158;2024-03-06T14:04:27;7.30;99.90
13433;DHT22;6789;47.678;9.158;2024-03-06T14:09:19;7.20;99.90
13433;DHT22;6789;47.678;9.158;2024-03-06T14:14:11;7.20;99.90
13433;DHT22;6789;47.678;9.158;2024-03-06T14:19:04;7.20;99.90
13433;DHT22;6789;47.678;9.158;2024-03-06T14:24:01;6.90;99.90
13433;DHT22;6789;47.678;9.158;2024-03-06T14:29:16;7.00;99.90
13433;DHT22;6789;47.678;9.158;2024-03-06T14:34:07;7.10;99.90
13433;DHT22;6789;47.678;9.158;2024-03-06T14:38:59;7.10;99.90
13433;DHT22;6789;47.678;9.158;2024-03-06T14:43:51;7.00;99.90
13433;DHT22;6789;47.678;9.158;2024-03-06T14:48:43;7.10;99.90
13433;DHT22;6789;47.678;9.158;2024-03-06T14:53:36;7.10;99.90
13433;DHT22;6789;47.678;9.158;2024-03-06T14:58:28;7.10;99.90
13433;DHT22;6789;47.678;9.158;2024-03-06T15:03:20;7.10;99.90
13433;DHT22;6789;47.678;9.158;2024-03-06T15:08:12;7.00;99.90
13433;DHT22;6789;47.678;9.158;2024-03-06T15:13:04;6.90;99.90
13433;DHT22;6789;47.678;9.158;2024-03-06T15:28:13;6.70;99.90
13433;DHT22;6789;47.678;9.158;2024-03-06T15:33:05;6.60;99.90
13433;DHT22;6789;47.678;9.158;2024-03-06T15:37:58;6.60;99.90
13433;DHT22;6789;47.678;9.158;2024-03-06T15:42:51;6.60;99.90
13433;DHT22;6789;47.678;9.158;2024-03-06T15:47:46;6.50;99.90
13433;DHT22;6789;47.678;9.158;2024-03-06T15:52:38;6.40;99.90
13433;DHT22;6789;47.678;9.158;2024-03-06T15:57:30;6.40;99.90
13433;DHT22;6789;47.678;9.158;2024-03-06T16:02:23;6.30;99.90
13433;DHT22;6789;47.678;9.158;2024-03-06T16:07:17;6.30;99.90
13433;DHT22;6789;47.678;9.158;2024-03-06T16:12:09;6.30;99.90
13433;DHT22;6789;47.678;9.158;2024-03-06T16:17:01;6.30;99.90
13433;DHT22;6789;47.678;9.158;2024-03-06T16:21:57;6.30;99.90
13433;DHT22;6789;47.678;9.158;2024-03-06T16:26:49;6.20;99.90
13433;DHT22;6789;47.678;9.158;2024-03-06T16:31:41;6.30;99.90
13433;DHT22;6789;47.678;9.158;2024-03-06T16:36:33;6.10;99.90
13433;DHT22;6789;47.678;9.158;2024-03-06T16:41:25;6.10;99.90
13433;DHT22;6789;47.678;9.158;2024-03-06T16:46:27;6.10;99.90
13433;DHT22;6789;47.678;9.158;2024-03-06T16:51:21;6.10;99.90
13433;DHT22;6789;47.678;9.158;2024-03-06T16:56:13;6.00;99.90
13433;DHT22;6789;47.678;9.158;2024-03-06T17:01:05;5.90;99.90
13433;DHT22;6789;47.678;9.158;2024-03-06T17:05:57;5.90;99.90
13433;DHT22;6789;47.678;9.158;2024-03-06T17:10:49;5.90;99.90
13433;DHT22;6789;47.678;9.158;2024-03-06T17:15:41;5.80;99.90
13433;DHT22;6789;47.678;9.158;2024-03-06T17:20:33;5.80;99.90
13433;DHT22;6789;47.678;9.158;2024-03-06T17:25:25;5.70;99.90
13433;DHT22;6789;47.678;9.158;2024-03-06T17:30:17;5.70;99.90
13433;DHT22;6789;47.678;9.158;2024-03-06T17:35:09;5.80;99.90
13433;DHT22;6789;47.678;9.158;2024-03-06T17:40:01;5.90;99.90
13433;DHT22;6789;47.678;9.158;2024-03-06T17:44:53;5.90;99.90
13433;DHT22;6789;47.678;9.158;2024-03-06T17:49:45;5.90;99.90
13433;DHT22;6789;47.678;9.158;2024-03-06T17:54:37;5.90;99.90
13433;DHT22;6789;47.678;9.158;2024-03-06T17:59:29;5.90;99.90
13433;DHT22;6789;47.678;9.158;2024-03-06T18:04:22;5.80;99.90
13433;DHT22;6789;47.678;9.158;2024-03-06T18:09:15;5.70;99.90
13433;DHT22;6789;47.678;9.158;2024-03-06T18:14:10;5.70;99.90
13433;DHT22;6789;47.678;9.158;2024-03-06T18:19:02;5.70;99.90
13433;DHT22;6789;47.678;9.158;2024-03-06T18:23:53;5.80;99.90
13433;DHT22;6789;47.678;9.158;2024-03-06T18:28:45;5.80;99.90
13433;DHT22;6789;47.678;9.158;2024-03-06T18:33:37;5.70;99.90
13433;DHT22;6789;47.678;9.158;2024-03-06T18:38:31;5.60;99.90
13433;DHT22;6789;47.678;9.158;2024-03-06T18:43:23;5.60;99.90
13433;DHT22;6789;47.678;9.158;2024-03-06T18:48:15;5.60;99.90
13433;DHT22;6789;47.678;9.158;2024-03-06T18:53:07;5.50;99.90
13433;DHT22;6789;47.678;9.158;2024-03-06T18:57:59;5.60;99.90
13433;DHT22;6789;47.678;9.158;2024-03-06T19:02:51;5.50;99.90
13433;DHT22;6789;47.678;9.158;2024-03-06T19:07:45;5.60;99.90
13433;DHT22;6789;47.678;9.158;2024-03-06T19:12:37;5.60;99.90
13433;DHT22;6789;47.678;9.158;2024-03-06T19:17:29;5.60;99.90
13433;DHT22;6789;47.678;9.158;2024-03-06T19:22:21;5.60;99.90
13433;DHT22;6789;47.678;9.158;2024-03-06T19:27:13;5.60;99.90
13433;DHT22;6789;47.678;9.158;2024-03-06T19:32:05;5.60;99.90
13433;DHT22;6789;47.678;9.158;2024-03-06T19:37:00;5.80;99.90
13433;DHT22;6789;47.678;9.158;2024-03-06T19:41:52;5.80;99.90
13433;DHT22;6789;47.678;9.158;2024-03-06T19:46:45;5.80;99.90
13433;DHT22;6789;47.678;9.158;2024-03-06T19:51:40;5.70;99.90
13433;DHT22;6789;47.678;9.158;2024-03-06T19:56:32;5.80;99.90
13433;DHT22;6789;47.678;9.158;2024-03-06T20:01:24;5.70;99.90
13433;DHT22;6789;47.678;9.158;2024-03-06T20:06:16;5.70;99.90
13433;DHT22;6789;47.678;9.158;2024-03-06T20:11:08;5.70;99.90
13433;DHT22;6789;47.678;9.158;2024-03-06T20:16:00;5.60;99.90
13433;DHT22;6789;47.678;9.158;2024-03-06T20:20:51;5.60;99.90
13433;DHT22;6789;47.678;9.158;2024-03-06T20:25:43;5.60;99.90
13433;DHT22;6789;47.678;9.158;2024-03-06T20:30:36;5.60;99.90
13433;DHT22;6789;47.678;9.158;2024-03-06T20:35:36;5.60;99.90
13433;DHT22;6789;47.678;9.158;2024-03-06T20:40:28;5.60;99.90
13433;DHT22;6789;47.678;9.158;2024-03-06T20:45:21;5.60;99.90
13433;DHT22;6789;47.678;9.158;2024-03-06T20:50:13;5.70;99.90
13433;DHT22;6789;47.678;9.158;2024-03-06T20:55:05;5.80;99.90
13433;DHT22;6789;47.678;9.158;2024-03-06T20:59:57;5.80;99.90
13433;DHT22;6789;47.678;9.158;2024-03-06T21:04:48;5.70;99.90
13433;DHT22;6789;47.678;9.158;2024-03-06T21:09:40;5.80;99.90
13433;DHT22;6789;47.678;9.158;2024-03-06T21:14:32;5.80;99.90
13433;DHT22;6789;47.678;9.158;2024-03-06T21:19:24;5.80;99.90
13433;DHT22;6789;47.678;9.158;2024-03-06T21:24:16;5.80;99.90
13433;DHT22;6789;47.678;9.158;2024-03-06T21:29:09;5.90;99.90
13433;DHT22;6789;47.678;9.158;2024-03-06T21:34:01;5.90;99.90
13433;DHT22;6789;47.678;9.158;2024-03-06T21:38:53;5.90;99.90
13433;DHT22;6789;47.678;9.158;2024-03-06T21:43:45;5.90;99.90
13433;DHT22;6789;47.678;9.158;2024-03-06T21:48:36;5.90;99.90
13433;DHT22;6789;47.678;9.158;2024-03-06T21:53:28;5.80;99.90
13433;DHT22;6789;47.678;9.158;2024-03-06T21:58:20;5.80;99.90
13433;DHT22;6789;47.678;9.158;2024-03-06T22:03:12;5.80;99.90
13433;DHT22;6789;47.678;9.158;2024-03-06T22:08:04;5.60;99.90
13433;DHT22;6789;47.678;9.158;2024-03-06T22:12:58;5.60;99.90
13433;DHT22;6789;47.678;9.158;2024-03-06T22:17:50;5.50;99.90
13433;DHT22;6789;47.678;9.158;2024-03-06T22:22:42;5.60;99.90
13433;DHT22;6789;47.678;9.158;2024-03-06T22:27:34;5.60;99.90
13433;DHT22;6789;47.678;9.158;2024-03-06T22:32:26;5.60;99.90
13433;DHT22;6789;47.678;9.158;2024-03-06T22:37:17;5.60;99.90
13433;DHT22;6789;47.678;9.158;2024-03-06T22:42:11;5.60;99.90
13433;DHT22;6789;47.678;9.158;2024-03-06T22:47:03;5.60;99.90
13433;DHT22;6789;47.678;9.158;2024-03-06T22:51:55;5.60;99.90
13433;DHT22;6789;47.678;9.158;2024-03-06T22:56:46;5.60;99.90
13433;DHT22;6789;47.678;9.158;2024-03-06T23:01:39;5.60;99.90
13433;DHT22;6789;47.678;9.158;2024-03-06T23:06:31;5.60;99.90
13433;DHT22;6789;47.678;9.158;2024-03-06T23:11:25;5.60;99.90
13433;DHT22;6789;47.678;9.158;2024-03-06T23:16:17;5.60;99.90
13433;DHT22;6789;47.678;9.158;2024-03-06T23:21:09;5.60;99.90
13433;DHT22;6789;47.678;9.158;2024-03-06T23:26:01;5.60;99.90
13433;DHT22;6789;47.678;9.158;2024-03-06T23:30:53;5.60;99.90
13433;DHT22;6789;47.678;9.158;2024-03-06T23:35:45;5.60;99.90
13433;DHT22;6789;47.678;9.158;2024-03-06T23:40:37;5.50;99.90
13433;DHT22;6789;47.678;9.158;2024-03-06T23:45:29;5.50;99.90
13433;DHT22;6789;47.678;9.158;2024-03-06T23:50:20;5.40;99.90
13433;DHT22;6789;47.678;9.158;2024-03-06T23:55:14;5.40;99.90
